sensor_id;sensor_type;location;lat;lon;timestamp;P1;durP1;ratioP1;P2;durP2;ratioP2
7835;SDS011;3963;42.658;23.298;2022-10-03T00:00:18;3.87;;;2.87;;
7835;SDS011;3963;42.658;23.298;2022-10-03T00:03:06;3.90;;;2.63;;
7835;SDS011;3963;42.658;23.298;2022-10-03T00:06:00;6.03;;;2.93;;
7835;SDS011;3963;42.658;23.298;2022-10-03T00:11:33;3.30;;;2.60;;
7835;SDS011;3963;42.658;23.298;2022-10-03T00:14:10;2.87;;;2.57;;
7835;SDS011;3963;42.658;23.298;2022-10-03T00:16:46;6.30;;;2.90;;
7835;SDS011;3963;42.658;23.298;2022-10-03T00:19:20;6.27;;;3.10;;
7835;SDS011;3963;42.658;23.298;2022-10-03T00:22:00;8.50;;;2.97;;
7835;SDS011;3963;42.658;23.298;2022-10-03T00:24:44;3.53;;;2.80;;
7835;SDS011;3963;42.658;23.298;2022-10-03T00:27:27;4.07;;;2.87;;
7835;SDS011;3963;42.658;23.298;2022-10-03T00:30:04;3.80;;;2.70;;
7835;SDS011;3963;42.658;23.298;2022-10-03T00:32:48;6.70;;;2.70;;
7835;SDS011;3963;42.658;23.298;2022-10-03T00:35:42;5.63;;;3.03;;
7835;SDS011;3963;42.658;23.298;2022-10-03T00:38:23;5.43;;;3.20;;
7835;SDS011;3963;42.658;23.298;2022-10-03T00:41:05;6.23;;;4.60;;
7835;SDS011;3963;42.658;23.298;2022-10-03T00:50:14;5.80;;;2.87;;
7835;SDS011;3963;42.658;23.298;2022-10-03T00:53:00;4.87;;;2.53;;
7835;SDS011;3963;42.658;23.298;2022-10-03T00:55:42;3.10;;;2.77;;
7835;SDS011;3963;42.658;23.298;2022-10-03T00:58:24;5.60;;;3.00;;
7835;SDS011;3963;42.658;23.298;2022-10-03T01:01:21;9.07;;;2.70;;
7835;SDS011;3963;42.658;23.298;2022-10-03T01:04:06;5.60;;;2.53;;
7835;SDS011;3963;42.658;23.298;2022-10-03T01:06:48;3.77;;;2.80;;
7835;SDS011;3963;42.658;23.298;2022-10-03T01:09:29;4.23;;;2.60;;
7835;SDS011;3963;42.658;23.298;2022-10-03T01:12:16;3.67;;;2.23;;
7835;SDS011;3963;42.658;23.298;2022-10-03T01:15:07;6.13;;;2.33;;
7835;SDS011;3963;42.658;23.298;2022-10-03T01:17:44;3.20;;;2.53;;
7835;SDS011;3963;42.658;23.298;2022-10-03T01:20:27;3.63;;;2.50;;
7835;SDS011;3963;42.658;23.298;2022-10-03T01:23:18;3.17;;;2.40;;
7835;SDS011;3963;42.658;23.298;2022-10-03T01:26:13;6.33;;;2.40;;
7835;SDS011;3963;42.658;23.298;2022-10-03T01:28:50;4.30;;;2.23;;
7835;SDS011;3963;42.658;23.298;2022-10-03T01:31:40;5.07;;;2.60;;
7835;SDS011;3963;42.658;23.298;2022-10-03T01:34:14;5.03;;;2.57;;
7835;SDS011;3963;42.658;23.298;2022-10-03T01:36:51;3.43;;;2.20;;
7835;SDS011;3963;42.658;23.298;2022-10-03T01:39:27;3.63;;;2.40;;
7835;SDS011;3963;42.658;23.298;2022-10-03T01:42:02;5.17;;;2.53;;
7835;SDS011;3963;42.658;23.298;2022-10-03T01:44:39;7.43;;;2.47;;
7835;SDS011;3963;42.658;23.298;2022-10-03T01:47:21;4.43;;;2.43;;
7835;SDS011;3963;42.658;23.298;2022-10-03T01:49:55;4.47;;;2.50;;
7835;SDS011;3963;42.658;23.298;2022-10-03T01:52:32;5.23;;;2.93;;
7835;SDS011;3963;42.658;23.298;2022-10-03T01:55:06;3.63;;;2.40;;
7835;SDS011;3963;42.658;23.298;2022-10-03T01:57:45;4.67;;;2.67;;
7835;SDS011;3963;42.658;23.298;2022-10-03T02:00:21;3.80;;;2.83;;
7835;SDS011;3963;42.658;23.298;2022-10-03T02:02:51;5.47;;;2.87;;
7835;SDS011;3963;42.658;23.298;2022-10-03T02:05:27;4.67;;;2.97;;
7835;SDS011;3963;42.658;23.298;2022-10-03T02:08:05;4.93;;;2.93;;
7835;SDS011;3963;42.658;23.298;2022-10-03T02:10:43;5.60;;;3.23;;
7835;SDS011;3963;42.658;23.298;2022-10-03T02:13:18;5.47;;;3.07;;
7835;SDS011;3963;42.658;23.298;2022-10-03T02:15:56;2.90;;;2.60;;
7835;SDS011;3963;42.658;23.298;2022-10-03T02:18:33;5.20;;;2.83;;
7835;SDS011;3963;42.658;23.298;2022-10-03T02:21:10;6.87;;;2.87;;
7835;SDS011;3963;42.658;23.298;2022-10-03T02:23:43;4.70;;;3.07;;
7835;SDS011;3963;42.658;23.298;2022-10-03T02:29:24;5.40;;;2.67;;
7835;SDS011;3963;42.658;23.298;2022-10-03T02:35:27;3.43;;;2.47;;
7835;SDS011;3963;42.658;23.298;2022-10-03T02:41:29;6.73;;;2.50;;
7835;SDS011;3963;42.658;23.298;2022-10-03T02:50:32;3.77;;;2.70;;
7835;SDS011;3963;42.658;23.298;2022-10-03T02:56:45;5.63;;;2.30;;
7835;SDS011;3963;42.658;23.298;2022-10-03T03:02:43;3.90;;;2.60;;
7835;SDS011;3963;42.658;23.298;2022-10-03T03:08:35;4.27;;;2.70;;
7835;SDS011;3963;42.658;23.298;2022-10-03T03:17:36;3.73;;;2.50;;
7835;SDS011;3963;42.658;23.298;2022-10-03T03:20:13;2.90;;;2.23;;
7835;SDS011;3963;42.658;23.298;2022-10-03T03:23:11;5.83;;;2.77;;
7835;SDS011;3963;42.658;23.298;2022-10-03T03:25:58;4.30;;;2.40;;
7835;SDS011;3963;42.658;23.298;2022-10-03T03:28:39;4.80;;;2.70;;
7835;SDS011;3963;42.658;23.298;2022-10-03T03:31:15;9.10;;;3.07;;
7835;SDS011;3963;42.658;23.298;2022-10-03T03:33:53;7.20;;;2.60;;
7835;SDS011;3963;42.658;23.298;2022-10-03T03:36:32;8.07;;;3.30;;
7835;SDS011;3963;42.658;23.298;2022-10-03T03:39:11;5.13;;;2.67;;
7835;SDS011;3963;42.658;23.298;2022-10-03T03:44:52;9.17;;;3.20;;
7835;SDS011;3963;42.658;23.298;2022-10-03T03:47:37;4.47;;;2.80;;
7835;SDS011;3963;42.658;23.298;2022-10-03T03:50:19;5.07;;;2.83;;
7835;SDS011;3963;42.658;23.298;2022-10-03T03:52:58;4.00;;;3.13;;
7835;SDS011;3963;42.658;23.298;2022-10-03T03:55:43;5.60;;;2.90;;
7835;SDS011;3963;42.658;23.298;2022-10-03T03:58:32;7.53;;;2.67;;
7835;SDS011;3963;42.658;23.298;2022-10-03T04:01:09;5.93;;;2.80;;
7835;SDS011;3963;42.658;23.298;2022-10-03T04:03:58;5.00;;;2.70;;
7835;SDS011;3963;42.658;23.298;2022-10-03T04:06:34;6.03;;;2.80;;
7835;SDS011;3963;42.658;23.298;2022-10-03T04:09:16;8.80;;;3.00;;
7835;SDS011;3963;42.658;23.298;2022-10-03T04:11:57;5.63;;;4.27;;
7835;SDS011;3963;42.658;23.298;2022-10-03T04:17:43;7.03;;;2.90;;
7835;SDS011;3963;42.658;23.298;2022-10-03T04:20:45;5.67;;;3.13;;
7835;SDS011;3963;42.658;23.298;2022-10-03T04:23:35;5.17;;;3.20;;
7835;SDS011;3963;42.658;23.298;2022-10-03T04:26:21;5.47;;;3.17;;
7835;SDS011;3963;42.658;23.298;2022-10-03T04:31:55;6.17;;;3.77;;
7835;SDS011;3963;42.658;23.298;2022-10-03T04:34:43;8.23;;;3.60;;
7835;SDS011;3963;42.658;23.298;2022-10-03T04:37:23;6.07;;;3.80;;
7835;SDS011;3963;42.658;23.298;2022-10-03T04:40:08;11.73;;;4.30;;
7835;SDS011;3963;42.658;23.298;2022-10-03T04:42:48;8.27;;;3.67;;
7835;SDS011;3963;42.658;23.298;2022-10-03T04:45:34;6.87;;;3.43;;
7835;SDS011;3963;42.658;23.298;2022-10-03T04:48:12;10.37;;;4.07;;
7835;SDS011;3963;42.658;23.298;2022-10-03T04:50:46;6.27;;;3.73;;
7835;SDS011;3963;42.658;23.298;2022-10-03T04:53:27;5.30;;;3.23;;
7835;SDS011;3963;42.658;23.298;2022-10-03T04:56:10;4.43;;;3.37;;
7835;SDS011;3963;42.658;23.298;2022-10-03T04:58:48;8.60;;;4.13;;
7835;SDS011;3963;42.658;23.298;2022-10-03T05:01:22;8.70;;;4.20;;
7835;SDS011;3963;42.658;23.298;2022-10-03T05:04:00;6.00;;;3.60;;
7835;SDS011;3963;42.658;23.298;2022-10-03T05:06:41;7.43;;;4.30;;
7835;SDS011;3963;42.658;23.298;2022-10-03T05:09:22;7.50;;;3.50;;
7835;SDS011;3963;42.658;23.298;2022-10-03T05:12:01;7.80;;;3.93;;
7835;SDS011;3963;42.658;23.298;2022-10-03T05:17:32;11.20;;;4.17;;
7835;SDS011;3963;42.658;23.298;2022-10-03T05:20:21;9.90;;;3.93;;
7835;SDS011;3963;42.658;23.298;2022-10-03T05:22:57;8.33;;;4.53;;
7835;SDS011;3963;42.658;23.298;2022-10-03T05:25:39;7.17;;;4.47;;
7835;SDS011;3963;42.658;23.298;2022-10-03T05:28:14;9.23;;;4.30;;
7835;SDS011;3963;42.658;23.298;2022-10-03T05:30:53;5.80;;;4.40;;
7835;SDS011;3963;42.658;23.298;2022-10-03T05:33:32;9.63;;;4.17;;
7835;SDS011;3963;42.658;23.298;2022-10-03T05:36:10;9.13;;;4.20;;
7835;SDS011;3963;42.658;23.298;2022-10-03T05:38:56;10.03;;;4.20;;
7835;SDS011;3963;42.658;23.298;2022-10-03T05:41:33;7.70;;;3.93;;
7835;SDS011;3963;42.658;23.298;2022-10-03T05:44:03;10.47;;;4.97;;
7835;SDS011;3963;42.658;23.298;2022-10-03T05:46:44;11.13;;;4.50;;
7835;SDS011;3963;42.658;23.298;2022-10-03T05:49:26;6.67;;;3.97;;
7835;SDS011;3963;42.658;23.298;2022-10-03T05:55:14;8.20;;;3.97;;
7835;SDS011;3963;42.658;23.298;2022-10-03T06:01:15;9.97;;;4.73;;
7835;SDS011;3963;42.658;23.298;2022-10-03T06:04:04;10.87;;;4.10;;
7835;SDS011;3963;42.658;23.298;2022-10-03T06:06:58;6.53;;;3.67;;
7835;SDS011;3963;42.658;23.298;2022-10-03T06:13:11;7.47;;;4.13;;
7835;SDS011;3963;42.658;23.298;2022-10-03T06:15:49;5.83;;;3.70;;
7835;SDS011;3963;42.658;23.298;2022-10-03T06:21:23;6.30;;;3.63;;
7835;SDS011;3963;42.658;23.298;2022-10-03T06:24:12;8.97;;;4.27;;
7835;SDS011;3963;42.658;23.298;2022-10-03T06:27:10;12.33;;;4.60;;
7835;SDS011;3963;42.658;23.298;2022-10-03T06:30:20;6.33;;;4.20;;
7835;SDS011;3963;42.658;23.298;2022-10-03T06:42:50;12.50;;;5.53;;
7835;SDS011;3963;42.658;23.298;2022-10-03T06:55:25;9.47;;;5.67;;
7835;SDS011;3963;42.658;23.298;2022-10-03T06:58:32;17.43;;;5.87;;
7835;SDS011;3963;42.658;23.298;2022-10-03T07:01:51;8.80;;;4.97;;
7835;SDS011;3963;42.658;23.298;2022-10-03T07:04:51;9.87;;;5.07;;
7835;SDS011;3963;42.658;23.298;2022-10-03T07:07:56;12.03;;;5.40;;
7835;SDS011;3963;42.658;23.298;2022-10-03T07:10:45;13.43;;;6.40;;
7835;SDS011;3963;42.658;23.298;2022-10-03T07:13:41;14.07;;;6.33;;
7835;SDS011;3963;42.658;23.298;2022-10-03T07:19:48;7.73;;;5.47;;
7835;SDS011;3963;42.658;23.298;2022-10-03T07:28:53;9.73;;;4.93;;
7835;SDS011;3963;42.658;23.298;2022-10-03T07:31:36;9.07;;;5.23;;
7835;SDS011;3963;42.658;23.298;2022-10-03T07:37:23;11.60;;;6.77;;
7835;SDS011;3963;42.658;23.298;2022-10-03T07:49:40;22.93;;;12.23;;
7835;SDS011;3963;42.658;23.298;2022-10-03T07:55:19;15.37;;;7.83;;
7835;SDS011;3963;42.658;23.298;2022-10-03T07:58:02;14.00;;;8.13;;
7835;SDS011;3963;42.658;23.298;2022-10-03T08:00:58;10.77;;;7.90;;
7835;SDS011;3963;42.658;23.298;2022-10-03T08:03:49;14.50;;;7.63;;
7835;SDS011;3963;42.658;23.298;2022-10-03T08:06:34;9.63;;;7.17;;
7835;SDS011;3963;42.658;23.298;2022-10-03T08:09:17;12.37;;;7.50;;
7835;SDS011;3963;42.658;23.298;2022-10-03T08:15:08;13.90;;;6.60;;
7835;SDS011;3963;42.658;23.298;2022-10-03T08:17:49;12.10;;;6.87;;
7835;SDS011;3963;42.658;23.298;2022-10-03T08:20:47;13.53;;;6.33;;
7835;SDS011;3963;42.658;23.298;2022-10-03T08:26:26;10.63;;;6.60;;
7835;SDS011;3963;42.658;23.298;2022-10-03T08:29:12;10.30;;;5.90;;
7835;SDS011;3963;42.658;23.298;2022-10-03T08:40:54;7.50;;;4.50;;
7835;SDS011;3963;42.658;23.298;2022-10-03T08:50:11;10.93;;;3.80;;
7835;SDS011;3963;42.658;23.298;2022-10-03T08:56:26;6.33;;;4.33;;
7835;SDS011;3963;42.658;23.298;2022-10-03T08:59:17;4.50;;;3.00;;
7835;SDS011;3963;42.658;23.298;2022-10-03T09:02:29;4.60;;;3.00;;
7835;SDS011;3963;42.658;23.298;2022-10-03T09:08:34;8.00;;;3.37;;
7835;SDS011;3963;42.658;23.298;2022-10-03T09:11:37;3.60;;;2.67;;
7835;SDS011;3963;42.658;23.298;2022-10-03T09:14:30;3.87;;;2.50;;
7835;SDS011;3963;42.658;23.298;2022-10-03T09:17:07;8.33;;;2.43;;
7835;SDS011;3963;42.658;23.298;2022-10-03T09:23:02;3.60;;;2.67;;
7835;SDS011;3963;42.658;23.298;2022-10-03T09:26:07;3.00;;;2.50;;
7835;SDS011;3963;42.658;23.298;2022-10-03T09:29:24;3.53;;;2.40;;
7835;SDS011;3963;42.658;23.298;2022-10-03T09:32:24;5.77;;;3.03;;
7835;SDS011;3963;42.658;23.298;2022-10-03T09:35:18;7.80;;;2.60;;
7835;SDS011;3963;42.658;23.298;2022-10-03T09:38:32;2.97;;;2.37;;
7835;SDS011;3963;42.658;23.298;2022-10-03T09:41:27;4.00;;;2.40;;
7835;SDS011;3963;42.658;23.298;2022-10-03T09:44:27;3.83;;;2.53;;
7835;SDS011;3963;42.658;23.298;2022-10-03T09:47:28;4.37;;;2.20;;
7835;SDS011;3963;42.658;23.298;2022-10-03T09:53:31;2.80;;;2.50;;
7835;SDS011;3963;42.658;23.298;2022-10-03T09:59:26;2.77;;;2.30;;
7835;SDS011;3963;42.658;23.298;2022-10-03T10:02:09;2.90;;;2.60;;
7835;SDS011;3963;42.658;23.298;2022-10-03T10:05:01;3.83;;;2.63;;
7835;SDS011;3963;42.658;23.298;2022-10-03T10:08:03;4.40;;;2.47;;
7835;SDS011;3963;42.658;23.298;2022-10-03T10:10:59;4.67;;;2.80;;
7835;SDS011;3963;42.658;23.298;2022-10-03T10:14:06;2.57;;;2.17;;
7835;SDS011;3963;42.658;23.298;2022-10-03T10:20:09;3.80;;;2.50;;
7835;SDS011;3963;42.658;23.298;2022-10-03T10:23:01;5.13;;;2.47;;
7835;SDS011;3963;42.658;23.298;2022-10-03T10:29:14;1.97;;;1.87;;
7835;SDS011;3963;42.658;23.298;2022-10-03T10:32:03;2.67;;;2.37;;
7835;SDS011;3963;42.658;23.298;2022-10-03T10:44:27;4.53;;;2.20;;
7835;SDS011;3963;42.658;23.298;2022-10-03T10:50:28;1.63;;;1.53;;
7835;SDS011;3963;42.658;23.298;2022-10-03T11:02:41;2.10;;;1.50;;
7835;SDS011;3963;42.658;23.298;2022-10-03T11:05:54;1.43;;;1.33;;
7835;SDS011;3963;42.658;23.298;2022-10-03T11:21:16;4.20;;;1.80;;
7835;SDS011;3963;42.658;23.298;2022-10-03T11:30:20;4.00;;;2.00;;
7835;SDS011;3963;42.658;23.298;2022-10-03T11:39:23;7.77;;;3.03;;
7835;SDS011;3963;42.658;23.298;2022-10-03T11:41:59;3.90;;;2.90;;
7835;SDS011;3963;42.658;23.298;2022-10-03T11:44:35;6.03;;;2.90;;
7835;SDS011;3963;42.658;23.298;2022-10-03T11:47:17;3.23;;;2.87;;
7835;SDS011;3963;42.658;23.298;2022-10-03T11:50:17;3.37;;;3.07;;
7835;SDS011;3963;42.658;23.298;2022-10-03T11:52:58;3.20;;;2.73;;
7835;SDS011;3963;42.658;23.298;2022-10-03T11:55:37;3.33;;;3.03;;
7835;SDS011;3963;42.658;23.298;2022-10-03T11:58:20;3.70;;;3.10;;
7835;SDS011;3963;42.658;23.298;2022-10-03T12:00:58;5.90;;;3.20;;
7835;SDS011;3963;42.658;23.298;2022-10-03T12:03:41;5.10;;;3.23;;
7835;SDS011;3963;42.658;23.298;2022-10-03T12:06:17;3.30;;;3.00;;
7835;SDS011;3963;42.658;23.298;2022-10-03T12:09:23;3.50;;;3.20;;
7835;SDS011;3963;42.658;23.298;2022-10-03T12:12:00;5.87;;;3.80;;
7835;SDS011;3963;42.658;23.298;2022-10-03T12:14:36;4.47;;;3.50;;
7835;SDS011;3963;42.658;23.298;2022-10-03T12:17:11;3.87;;;3.47;;
7835;SDS011;3963;42.658;23.298;2022-10-03T12:19:47;7.63;;;4.13;;
7835;SDS011;3963;42.658;23.298;2022-10-03T12:22:26;3.97;;;3.57;;
7835;SDS011;3963;42.658;23.298;2022-10-03T12:25:13;4.37;;;3.97;;
7835;SDS011;3963;42.658;23.298;2022-10-03T12:27:47;4.80;;;4.30;;
7835;SDS011;3963;42.658;23.298;2022-10-03T12:30:22;5.60;;;4.10;;
7835;SDS011;3963;42.658;23.298;2022-10-03T12:32:54;4.20;;;3.77;;
7835;SDS011;3963;42.658;23.298;2022-10-03T12:35:34;3.83;;;3.47;;
7835;SDS011;3963;42.658;23.298;2022-10-03T12:38:15;6.60;;;3.70;;
7835;SDS011;3963;42.658;23.298;2022-10-03T12:40:54;6.53;;;3.93;;
7835;SDS011;3963;42.658;23.298;2022-10-03T12:43:32;6.87;;;3.33;;
7835;SDS011;3963;42.658;23.298;2022-10-03T12:46:13;4.90;;;3.43;;
7835;SDS011;3963;42.658;23.298;2022-10-03T12:48:44;4.97;;;3.20;;
7835;SDS011;3963;42.658;23.298;2022-10-03T12:51:21;4.20;;;3.70;;
7835;SDS011;3963;42.658;23.298;2022-10-03T12:54:04;4.37;;;3.97;;
7835;SDS011;3963;42.658;23.298;2022-10-03T12:56:41;6.10;;;4.60;;
7835;SDS011;3963;42.658;23.298;2022-10-03T12:59:14;4.40;;;3.87;;
7835;SDS011;3963;42.658;23.298;2022-10-03T13:02:07;4.53;;;4.10;;
7835;SDS011;3963;42.658;23.298;2022-10-03T13:04:50;7.33;;;4.03;;
7835;SDS011;3963;42.658;23.298;2022-10-03T13:07:30;4.60;;;4.20;;
7835;SDS011;3963;42.658;23.298;2022-10-03T13:10:11;6.80;;;3.90;;
7835;SDS011;3963;42.658;23.298;2022-10-03T13:12:44;4.47;;;4.07;;
7835;SDS011;3963;42.658;23.298;2022-10-03T13:21:22;4.30;;;3.90;;
7835;SDS011;3963;42.658;23.298;2022-10-03T13:24:00;5.47;;;4.97;;
7835;SDS011;3963;42.658;23.298;2022-10-03T13:26:37;5.73;;;3.53;;
7835;SDS011;3963;42.658;23.298;2022-10-03T13:29:18;3.97;;;3.57;;
7835;SDS011;3963;42.658;23.298;2022-10-03T13:32:10;3.87;;;3.43;;
7835;SDS011;3963;42.658;23.298;2022-10-03T13:37:54;4.17;;;3.40;;
7835;SDS011;3963;42.658;23.298;2022-10-03T13:40:31;4.27;;;3.37;;
7835;SDS011;3963;42.658;23.298;2022-10-03T13:43:06;3.63;;;3.33;;
7835;SDS011;3963;42.658;23.298;2022-10-03T13:45:37;4.17;;;3.10;;
7835;SDS011;3963;42.658;23.298;2022-10-03T13:48:10;4.47;;;3.70;;
7835;SDS011;3963;42.658;23.298;2022-10-03T13:50:41;3.67;;;3.10;;
7835;SDS011;3963;42.658;23.298;2022-10-03T13:53:26;3.37;;;3.07;;
7835;SDS011;3963;42.658;23.298;2022-10-03T13:56:08;4.10;;;3.10;;
7835;SDS011;3963;42.658;23.298;2022-10-03T13:58:43;5.80;;;3.20;;
7835;SDS011;3963;42.658;23.298;2022-10-03T14:01:29;2.90;;;2.70;;
7835;SDS011;3963;42.658;23.298;2022-10-03T14:07:03;5.70;;;2.90;;
7835;SDS011;3963;42.658;23.298;2022-10-03T14:09:39;2.77;;;2.57;;
7835;SDS011;3963;42.658;23.298;2022-10-03T14:12:29;4.63;;;2.80;;
7835;SDS011;3963;42.658;23.298;2022-10-03T14:15:15;3.83;;;2.40;;
7835;SDS011;3963;42.658;23.298;2022-10-03T14:17:50;3.03;;;2.50;;
7835;SDS011;3963;42.658;23.298;2022-10-03T14:20:25;3.00;;;2.70;;
7835;SDS011;3963;42.658;23.298;2022-10-03T14:22:59;3.47;;;2.40;;
7835;SDS011;3963;42.658;23.298;2022-10-03T14:25:36;2.47;;;2.20;;
7835;SDS011;3963;42.658;23.298;2022-10-03T14:28:09;3.73;;;3.00;;
7835;SDS011;3963;42.658;23.298;2022-10-03T14:30:47;4.13;;;2.90;;
7835;SDS011;3963;42.658;23.298;2022-10-03T14:33:24;3.20;;;2.60;;
7835;SDS011;3963;42.658;23.298;2022-10-03T14:36:06;2.90;;;2.60;;
7835;SDS011;3963;42.658;23.298;2022-10-03T14:38:50;3.30;;;2.70;;
7835;SDS011;3963;42.658;23.298;2022-10-03T14:41:27;3.80;;;2.57;;
7835;SDS011;3963;42.658;23.298;2022-10-03T14:44:04;4.13;;;2.43;;
7835;SDS011;3963;42.658;23.298;2022-10-03T14:46:38;4.33;;;3.23;;
7835;SDS011;3963;42.658;23.298;2022-10-03T14:49:11;4.03;;;2.83;;
7835;SDS011;3963;42.658;23.298;2022-10-03T14:51:46;3.53;;;2.57;;
7835;SDS011;3963;42.658;23.298;2022-10-03T14:54:18;3.33;;;3.03;;
7835;SDS011;3963;42.658;23.298;2022-10-03T14:56:48;3.73;;;2.83;;
7835;SDS011;3963;42.658;23.298;2022-10-03T14:59:18;3.63;;;3.20;;
7835;SDS011;3963;42.658;23.298;2022-10-03T15:01:50;4.90;;;3.87;;
7835;SDS011;3963;42.658;23.298;2022-10-03T15:04:26;5.17;;;3.57;;
7835;SDS011;3963;42.658;23.298;2022-10-03T15:06:58;4.03;;;3.63;;
7835;SDS011;3963;42.658;23.298;2022-10-03T15:09:31;3.87;;;3.40;;
7835;SDS011;3963;42.658;23.298;2022-10-03T15:12:09;4.70;;;3.67;;
7835;SDS011;3963;42.658;23.298;2022-10-03T15:14:43;3.33;;;3.03;;
7835;SDS011;3963;42.658;23.298;2022-10-03T15:17:16;5.33;;;4.40;;
7835;SDS011;3963;42.658;23.298;2022-10-03T15:19:47;3.83;;;3.53;;
7835;SDS011;3963;42.658;23.298;2022-10-03T15:22:22;3.33;;;3.03;;
7835;SDS011;3963;42.658;23.298;2022-10-03T15:24:54;4.30;;;3.63;;
7835;SDS011;3963;42.658;23.298;2022-10-03T15:27:27;3.50;;;3.20;;
7835;SDS011;3963;42.658;23.298;2022-10-03T15:29:56;3.83;;;2.83;;
7835;SDS011;3963;42.658;23.298;2022-10-03T15:32:26;3.03;;;2.73;;
7835;SDS011;3963;42.658;23.298;2022-10-03T15:34:58;3.70;;;3.17;;
7835;SDS011;3963;42.658;23.298;2022-10-03T15:37:28;5.73;;;3.40;;
7835;SDS011;3963;42.658;23.298;2022-10-03T15:40:01;4.13;;;3.57;;
7835;SDS011;3963;42.658;23.298;2022-10-03T15:42:31;4.37;;;2.80;;
7835;SDS011;3963;42.658;23.298;2022-10-03T15:45:16;4.43;;;3.10;;
7835;SDS011;3963;42.658;23.298;2022-10-03T15:47:50;3.03;;;2.73;;
7835;SDS011;3963;42.658;23.298;2022-10-03T15:50:18;3.60;;;3.10;;
7835;SDS011;3963;42.658;23.298;2022-10-03T15:52:49;3.13;;;2.70;;
7835;SDS011;3963;42.658;23.298;2022-10-03T15:55:18;5.73;;;3.23;;
7835;SDS011;3963;42.658;23.298;2022-10-03T15:57:51;4.40;;;2.63;;
7835;SDS011;3963;42.658;23.298;2022-10-03T16:00:21;2.77;;;2.47;;
7835;SDS011;3963;42.658;23.298;2022-10-03T16:02:55;3.00;;;2.70;;
7835;SDS011;3963;42.658;23.298;2022-10-03T16:05:30;3.03;;;2.37;;
7835;SDS011;3963;42.658;23.298;2022-10-03T16:07:58;2.63;;;2.20;;
7835;SDS011;3963;42.658;23.298;2022-10-03T16:10:30;3.43;;;2.40;;
7835;SDS011;3963;42.658;23.298;2022-10-03T16:13:04;3.53;;;2.90;;
7835;SDS011;3963;42.658;23.298;2022-10-03T16:15:50;3.03;;;2.47;;
7835;SDS011;3963;42.658;23.298;2022-10-03T16:18:39;5.47;;;3.53;;
7835;SDS011;3963;42.658;23.298;2022-10-03T16:21:17;3.87;;;2.57;;
7835;SDS011;3963;42.658;23.298;2022-10-03T16:23:51;2.90;;;2.57;;
7835;SDS011;3963;42.658;23.298;2022-10-03T16:26:21;3.93;;;2.63;;
7835;SDS011;3963;42.658;23.298;2022-10-03T16:28:55;4.67;;;2.70;;
7835;SDS011;3963;42.658;23.298;2022-10-03T16:31:28;4.07;;;3.07;;
7835;SDS011;3963;42.658;23.298;2022-10-03T16:34:04;5.37;;;3.30;;
7835;SDS011;3963;42.658;23.298;2022-10-03T16:36:40;7.77;;;4.50;;
7835;SDS011;3963;42.658;23.298;2022-10-03T16:39:14;5.57;;;3.77;;
7835;SDS011;3963;42.658;23.298;2022-10-03T16:41:45;4.67;;;4.10;;
7835;SDS011;3963;42.658;23.298;2022-10-03T16:44:17;3.97;;;3.57;;
7835;SDS011;3963;42.658;23.298;2022-10-03T16:46:48;3.57;;;2.77;;
7835;SDS011;3963;42.658;23.298;2022-10-03T16:49:26;4.17;;;2.93;;
7835;SDS011;3963;42.658;23.298;2022-10-03T16:52:14;2.80;;;2.43;;
7835;SDS011;3963;42.658;23.298;2022-10-03T16:54:44;4.93;;;3.17;;
7835;SDS011;3963;42.658;23.298;2022-10-03T16:57:13;4.47;;;2.90;;
7835;SDS011;3963;42.658;23.298;2022-10-03T16:59:42;6.30;;;3.60;;
7835;SDS011;3963;42.658;23.298;2022-10-03T17:02:17;4.53;;;3.30;;
7835;SDS011;3963;42.658;23.298;2022-10-03T17:04:48;7.20;;;4.50;;
7835;SDS011;3963;42.658;23.298;2022-10-03T17:07:18;12.17;;;6.60;;
7835;SDS011;3963;42.658;23.298;2022-10-03T17:09:48;4.13;;;3.10;;
7835;SDS011;3963;42.658;23.298;2022-10-03T17:12:18;3.73;;;2.77;;
7835;SDS011;3963;42.658;23.298;2022-10-03T17:14:50;3.90;;;2.57;;
7835;SDS011;3963;42.658;23.298;2022-10-03T17:17:23;2.97;;;2.67;;
7835;SDS011;3963;42.658;23.298;2022-10-03T17:19:58;7.57;;;2.87;;
7835;SDS011;3963;42.658;23.298;2022-10-03T17:22:29;4.07;;;3.17;;
7835;SDS011;3963;42.658;23.298;2022-10-03T17:25:02;5.83;;;3.90;;
7835;SDS011;3963;42.658;23.298;2022-10-03T17:27:35;5.23;;;3.00;;
7835;SDS011;3963;42.658;23.298;2022-10-03T17:30:05;5.23;;;3.60;;
7835;SDS011;3963;42.658;23.298;2022-10-03T17:32:55;6.03;;;3.73;;
7835;SDS011;3963;42.658;23.298;2022-10-03T17:35:30;5.37;;;3.03;;
7835;SDS011;3963;42.658;23.298;2022-10-03T17:38:12;4.87;;;2.83;;
7835;SDS011;3963;42.658;23.298;2022-10-03T17:40:47;3.57;;;3.00;;
7835;SDS011;3963;42.658;23.298;2022-10-03T17:43:18;7.93;;;4.20;;
7835;SDS011;3963;42.658;23.298;2022-10-03T17:45:55;5.67;;;4.17;;
7835;SDS011;3963;42.658;23.298;2022-10-03T17:48:34;6.83;;;4.00;;
7835;SDS011;3963;42.658;23.298;2022-10-03T17:51:23;4.47;;;3.47;;
7835;SDS011;3963;42.658;23.298;2022-10-03T17:54:04;3.33;;;2.70;;
7835;SDS011;3963;42.658;23.298;2022-10-03T17:56:40;6.50;;;2.87;;
7835;SDS011;3963;42.658;23.298;2022-10-03T17:59:12;3.53;;;2.70;;
7835;SDS011;3963;42.658;23.298;2022-10-03T18:01:42;4.27;;;3.13;;
7835;SDS011;3963;42.658;23.298;2022-10-03T18:04:13;5.43;;;2.40;;
7835;SDS011;3963;42.658;23.298;2022-10-03T18:06:47;4.53;;;2.30;;
7835;SDS011;3963;42.658;23.298;2022-10-03T18:09:23;3.50;;;2.27;;
7835;SDS011;3963;42.658;23.298;2022-10-03T18:11:52;5.50;;;2.80;;
7835;SDS011;3963;42.658;23.298;2022-10-03T18:14:29;4.37;;;2.60;;
7835;SDS011;3963;42.658;23.298;2022-10-03T18:17:13;5.47;;;2.40;;
7835;SDS011;3963;42.658;23.298;2022-10-03T18:22:46;4.50;;;3.23;;
7835;SDS011;3963;42.658;23.298;2022-10-03T18:25:20;4.60;;;2.80;;
7835;SDS011;3963;42.658;23.298;2022-10-03T18:28:13;3.70;;;2.60;;
7835;SDS011;3963;42.658;23.298;2022-10-03T18:30:48;4.23;;;2.40;;
7835;SDS011;3963;42.658;23.298;2022-10-03T18:33:20;4.10;;;2.60;;
7835;SDS011;3963;42.658;23.298;2022-10-03T18:35:51;5.70;;;2.90;;
7835;SDS011;3963;42.658;23.298;2022-10-03T18:38:22;8.53;;;2.53;;
7835;SDS011;3963;42.658;23.298;2022-10-03T18:40:53;6.17;;;2.60;;
7835;SDS011;3963;42.658;23.298;2022-10-03T18:43:26;4.70;;;2.80;;
7835;SDS011;3963;42.658;23.298;2022-10-03T18:45:58;4.50;;;2.40;;
7835;SDS011;3963;42.658;23.298;2022-10-03T18:48:40;6.10;;;3.37;;
7835;SDS011;3963;42.658;23.298;2022-10-03T18:51:14;4.50;;;3.33;;
7835;SDS011;3963;42.658;23.298;2022-10-03T18:53:50;4.27;;;2.90;;
7835;SDS011;3963;42.658;23.298;2022-10-03T18:56:23;3.20;;;2.33;;
7835;SDS011;3963;42.658;23.298;2022-10-03T18:58:58;4.57;;;2.60;;
7835;SDS011;3963;42.658;23.298;2022-10-03T19:01:39;4.13;;;2.27;;
7835;SDS011;3963;42.658;23.298;2022-10-03T19:04:29;5.20;;;2.47;;
7835;SDS011;3963;42.658;23.298;2022-10-03T19:07:03;3.20;;;1.80;;
7835;SDS011;3963;42.658;23.298;2022-10-03T19:09:43;5.07;;;2.10;;
7835;SDS011;3963;42.658;23.298;2022-10-03T19:12:33;4.00;;;2.30;;
7835;SDS011;3963;42.658;23.298;2022-10-03T19:15:07;3.83;;;2.40;;
7835;SDS011;3963;42.658;23.298;2022-10-03T19:17:47;2.23;;;2.03;;
7835;SDS011;3963;42.658;23.298;2022-10-03T19:20:25;4.83;;;2.20;;
7835;SDS011;3963;42.658;23.298;2022-10-03T19:22:58;4.23;;;2.53;;
7835;SDS011;3963;42.658;23.298;2022-10-03T19:25:32;4.70;;;2.20;;
7835;SDS011;3963;42.658;23.298;2022-10-03T19:28:04;3.37;;;2.40;;
7835;SDS011;3963;42.658;23.298;2022-10-03T19:30:39;2.80;;;2.03;;
7835;SDS011;3963;42.658;23.298;2022-10-03T19:33:08;4.40;;;2.60;;
7835;SDS011;3963;42.658;23.298;2022-10-03T19:35:44;4.37;;;2.23;;
7835;SDS011;3963;42.658;23.298;2022-10-03T19:38:13;5.37;;;2.50;;
7835;SDS011;3963;42.658;23.298;2022-10-03T19:40:49;3.67;;;2.60;;
7835;SDS011;3963;42.658;23.298;2022-10-03T19:43:30;3.77;;;2.37;;
7835;SDS011;3963;42.658;23.298;2022-10-03T19:46:09;3.50;;;2.40;;
7835;SDS011;3963;42.658;23.298;2022-10-03T19:49:01;3.03;;;2.00;;
7835;SDS011;3963;42.658;23.298;2022-10-03T19:51:46;3.00;;;2.43;;
7835;SDS011;3963;42.658;23.298;2022-10-03T19:54:25;2.80;;;2.20;;
7835;SDS011;3963;42.658;23.298;2022-10-03T19:56:56;3.93;;;2.40;;
7835;SDS011;3963;42.658;23.298;2022-10-03T19:59:35;3.07;;;2.13;;